CheckWX is a tool to help pilots better visualize weather data.  It is not intended as a substitute for an official pre-flight weather briefing.

19:47:19 UTC

KSJC METAR
Norman Y Mineta San Jose International Airport
San Jose, California, USA
Current

54 mins ago

KSJC 291853Z 33008KT 9SM FEW017 SCT070 BKN100 14/09 A3029 RMK AO2 SLP256 T01390089
Observed
Jan-29 @ 18:53 UTC
Wind
  • 330° at 8 KTS
Visibility
9 SM
Flight Rules
VFR
Cloud Levels
  • Few at 1,700' AGL
  • Scattered at 7,000' AGL
  • Broken at 10,000' AGL
Temperature
14°C / 57°F
Dewpoint
C / 48°F
Humidity
72%
Altimeter
30.29" Hg
Pressure
1025.72 hPa
Previous

2 hours ago

KSJC 291753Z 31009KT 9SM FEW012 SCT080 BKN100 11/09 A3029 RMK AO2 SLP265 T01110089 PNO $
Observed
Jan-29 @ 17:53 UTC
Wind
  • 310° at 9 KTS
Visibility
9 SM
Flight Rules
VFR
Cloud Levels
  • Few at 1,200' AGL
  • Scattered at 8,000' AGL
  • Broken at 10,000' AGL
Temperature
11°C / 52°F
Dewpoint
C / 48°F
Humidity
88%
Altimeter
30.29" Hg
Pressure
1025.72 hPa
Previous

3 hours ago

KSJC 291653Z 31005KT 9SM FEW012 BKN100 10/08 A3030 RMK AO2 SLP269 T01000083 PNO $
Observed
Jan-29 @ 16:53 UTC
Wind
  • 310° at 5 KTS
Visibility
9 SM
Flight Rules
VFR
Cloud Levels
  • Few at 1,200' AGL
  • Broken at 10,000' AGL
Temperature
10°C / 50°F
Dewpoint
C / 46°F
Humidity
88%
Altimeter
30.3" Hg
Pressure
1026.12 hPa